createdAt,value
2019-01-06T00:00:36.197Z,1019.48
2019-01-06T00:01:36.186Z,1019.48
2019-01-06T00:02:36.201Z,1019.50
2019-01-06T00:03:36.184Z,1019.48
2019-01-06T00:04:36.170Z,1019.48
2019-01-06T00:05:36.171Z,1019.41
2019-01-06T00:06:36.155Z,1019.44
2019-01-06T00:07:36.135Z,1019.44
2019-01-06T00:08:36.142Z,1019.46
2019-01-06T00:09:36.116Z,1019.46
2019-01-06T00:10:36.105Z,1019.48
2019-01-06T00:11:36.109Z,1019.49
2019-01-06T00:12:36.086Z,1019.51
2019-01-06T00:13:36.074Z,1019.54
2019-01-06T00:14:36.047Z,1019.59
2019-01-06T00:15:36.032Z,1019.51
2019-01-06T00:16:36.019Z,1019.54
2019-01-06T00:17:36.010Z,1019.51
2019-01-06T00:18:36.157Z,1019.52
2019-01-06T00:19:35.986Z,1019.52
2019-01-06T00:20:35.974Z,1019.54
2019-01-06T00:21:35.967Z,1019.60
2019-01-06T00:22:35.953Z,1019.56
2019-01-06T00:23:35.940Z,1019.50
2019-01-06T00:24:35.930Z,1019.56
2019-01-06T00:25:35.920Z,1019.54
2019-01-06T00:26:35.907Z,1019.52
2019-01-06T00:27:35.897Z,1019.64
2019-01-06T00:28:35.888Z,1019.59
2019-01-06T00:29:35.874Z,1019.61
2019-01-06T00:30:35.866Z,1019.60
2019-01-06T00:31:35.854Z,1019.60
2019-01-06T00:32:35.846Z,1019.66
2019-01-06T00:33:35.831Z,1019.62
2019-01-06T00:34:35.823Z,1019.63
2019-01-06T00:35:35.811Z,1019.65
2019-01-06T00:36:35.796Z,1019.59
2019-01-06T00:37:35.787Z,1019.63
2019-01-06T00:38:35.775Z,1019.74
2019-01-06T00:39:35.764Z,1019.69
2019-01-06T00:40:35.751Z,1019.73
2019-01-06T00:41:35.740Z,1019.75
2019-01-06T00:42:35.733Z,1019.79
2019-01-06T00:43:35.720Z,1019.81
2019-01-06T00:44:35.709Z,1019.79
2019-01-06T00:45:35.700Z,1019.83
2019-01-06T00:46:35.688Z,1019.90
2019-01-06T00:47:35.678Z,1019.89
2019-01-06T00:48:35.664Z,1019.85
2019-01-06T00:49:35.654Z,1019.86
2019-01-06T00:50:35.643Z,1019.83
2019-01-06T00:51:35.630Z,1019.81
2019-01-06T00:52:35.621Z,1019.77
2019-01-06T00:53:35.610Z,1019.73
2019-01-06T00:54:35.598Z,1019.81
2019-01-06T00:55:35.587Z,1019.81
2019-01-06T00:56:35.575Z,1019.78
2019-01-06T00:57:35.565Z,1019.81
2019-01-06T00:58:35.554Z,1019.80
2019-01-06T00:59:35.544Z,1019.81
2019-01-06T01:00:35.530Z,1019.85
2019-01-06T01:01:35.520Z,1019.86
2019-01-06T01:02:35.515Z,1019.84
2019-01-06T01:03:35.498Z,1019.82
2019-01-06T01:04:35.486Z,1019.84
2019-01-06T01:05:35.476Z,1019.81
2019-01-06T01:06:35.476Z,1019.77
2019-01-06T01:07:35.454Z,1019.81
2019-01-06T01:08:35.442Z,1019.81
2019-01-06T01:09:35.952Z,1019.78
2019-01-06T01:10:35.419Z,1019.80
2019-01-06T01:11:35.420Z,1019.75
2019-01-06T01:12:35.397Z,1019.79
2019-01-06T01:13:35.390Z,1019.75
2019-01-06T01:14:35.376Z,1019.78
2019-01-06T01:15:35.367Z,1019.80
2019-01-06T01:16:35.358Z,1019.88
2019-01-06T01:17:35.353Z,1019.84
2019-01-06T01:18:35.331Z,1019.89
2019-01-06T01:19:35.320Z,1019.87
2019-01-06T01:20:35.314Z,1019.90
2019-01-06T01:21:35.300Z,1019.89
2019-01-06T01:22:35.289Z,1019.92
2019-01-06T01:23:35.277Z,1019.88
2019-01-06T01:24:35.266Z,1019.89
2019-01-06T01:25:35.257Z,1019.95
2019-01-06T01:26:35.246Z,1019.83
2019-01-06T01:27:35.234Z,1019.92
2019-01-06T01:28:35.223Z,1019.89
2019-01-06T01:29:35.211Z,1019.89
2019-01-06T01:30:35.203Z,1019.90
2019-01-06T01:31:35.186Z,1019.87
2019-01-06T01:32:35.178Z,1019.92
2019-01-06T01:33:35.168Z,1019.95
2019-01-06T01:34:35.155Z,1020.00
2019-01-06T01:35:35.143Z,1019.99
2019-01-06T01:36:35.136Z,1020.02
2019-01-06T01:37:35.123Z,1020.08
2019-01-06T01:38:35.110Z,1020.04
2019-01-06T01:39:35.102Z,1020.05
2019-01-06T01:40:35.098Z,1020.07
2019-01-06T01:41:35.078Z,1020.06
2019-01-06T01:42:35.070Z,1020.07
2019-01-06T01:43:35.069Z,1020.04
2019-01-06T01:44:35.043Z,1020.09
2019-01-06T01:45:35.031Z,1020.09
2019-01-06T01:46:35.022Z,1020.09
2019-01-06T01:47:35.012Z,1020.09
2019-01-06T01:48:34.998Z,1020.12
2019-01-06T01:49:54.616Z,1020.11
2019-01-06T01:51:17.021Z,1020.11
2019-01-06T01:52:17.008Z,1020.06
2019-01-06T01:53:17.003Z,1020.12
2019-01-06T01:54:16.988Z,1020.12
2019-01-06T01:55:16.979Z,1020.11
2019-01-06T01:56:16.970Z,1020.16
2019-01-06T01:57:16.957Z,1020.18
2019-01-06T01:58:16.943Z,1020.16
2019-01-06T01:59:16.933Z,1020.18
2019-01-06T02:00:16.927Z,1020.17
2019-01-06T02:01:16.939Z,1020.16
2019-01-06T02:02:16.908Z,1020.19
2019-01-06T02:03:16.888Z,1020.22
2019-01-06T02:04:16.875Z,1020.23
2019-01-06T02:05:16.865Z,1020.22
2019-01-06T02:06:16.853Z,1020.23
2019-01-06T02:07:16.848Z,1020.29
2019-01-06T02:08:16.833Z,1020.27
2019-01-06T02:09:16.823Z,1020.27
2019-01-06T02:10:16.811Z,1020.28
2019-01-06T02:11:16.800Z,1020.32
2019-01-06T02:12:16.791Z,1020.31
2019-01-06T02:13:16.780Z,1020.35
2019-01-06T02:14:16.784Z,1020.36
2019-01-06T02:15:16.763Z,1020.35
2019-01-06T02:16:16.750Z,1020.34
2019-01-06T02:17:16.733Z,1020.31
2019-01-06T02:18:16.723Z,1020.32
2019-01-06T02:19:16.710Z,1020.36
2019-01-06T02:20:16.700Z,1020.36
2019-01-06T02:21:16.696Z,1020.38
2019-01-06T02:22:16.680Z,1020.42
2019-01-06T02:23:16.667Z,1020.37
2019-01-06T02:24:16.658Z,1020.37
2019-01-06T02:25:16.650Z,1020.36
2019-01-06T02:26:16.635Z,1020.38
2019-01-06T02:27:16.629Z,1020.36
2019-01-06T02:28:16.614Z,1020.43
2019-01-06T02:29:16.599Z,1020.37
2019-01-06T02:30:16.590Z,1020.36
2019-01-06T02:31:16.588Z,1020.37
2019-01-06T02:32:16.570Z,1020.37
2019-01-06T02:33:16.561Z,1020.41
2019-01-06T02:34:16.546Z,1020.40
2019-01-06T02:35:16.535Z,1020.38
2019-01-06T02:36:16.521Z,1020.36
2019-01-06T02:37:16.515Z,1020.41
2019-01-06T02:38:16.507Z,1020.40
2019-01-06T02:39:16.494Z,1020.37
2019-01-06T02:40:16.498Z,1020.42
2019-01-06T02:41:16.469Z,1020.39
2019-01-06T02:42:16.455Z,1020.38
2019-01-06T02:43:16.445Z,1020.44
2019-01-06T02:44:16.437Z,1020.44
2019-01-06T02:45:16.427Z,1020.44
2019-01-06T02:46:16.415Z,1020.46
2019-01-06T02:47:16.403Z,1020.44
2019-01-06T02:48:16.393Z,1020.42
2019-01-06T02:49:16.381Z,1020.44
2019-01-06T02:50:16.373Z,1020.45
2019-01-06T02:51:16.360Z,1020.45
2019-01-06T02:52:16.346Z,1020.49
2019-01-06T02:53:16.337Z,1020.48
2019-01-06T02:54:16.331Z,1020.47
2019-01-06T02:55:16.314Z,1020.45
2019-01-06T02:56:16.302Z,1020.49
2019-01-06T02:57:16.293Z,1020.50
2019-01-06T02:58:16.281Z,1020.54
2019-01-06T02:59:16.272Z,1020.54
2019-01-06T03:00:16.263Z,1020.56
2019-01-06T03:01:16.249Z,1020.54
2019-01-06T03:02:16.238Z,1020.53
2019-01-06T03:03:16.230Z,1020.53
2019-01-06T03:04:16.214Z,1020.53
2019-01-06T03:05:16.208Z,1020.54
2019-01-06T03:06:16.193Z,1020.60
2019-01-06T03:07:16.188Z,1020.61
2019-01-06T03:08:16.175Z,1020.61
2019-01-06T03:09:16.171Z,1020.62
2019-01-06T03:10:16.151Z,1020.64
2019-01-06T03:11:16.139Z,1020.66
2019-01-06T03:12:16.129Z,1020.68
2019-01-06T03:13:16.116Z,1020.68
2019-01-06T03:14:16.108Z,1020.64
2019-01-06T03:15:16.094Z,1020.66
2019-01-06T03:16:16.084Z,1020.66
2019-01-06T03:17:16.073Z,1020.67
2019-01-06T03:18:16.063Z,1020.65
2019-01-06T03:19:16.064Z,1020.64
2019-01-06T03:20:16.040Z,1020.69
2019-01-06T03:21:16.029Z,1020.65
2019-01-06T03:22:16.018Z,1020.62
2019-01-06T03:23:16.006Z,1020.66
2019-01-06T03:24:15.995Z,1020.66
2019-01-06T03:25:15.986Z,1020.67
2019-01-06T03:26:15.974Z,1020.64
2019-01-06T03:27:15.962Z,1020.64
2019-01-06T03:28:15.949Z,1020.67
2019-01-06T03:29:15.942Z,1020.67
2019-01-06T03:30:15.943Z,1020.67
2019-01-06T03:31:15.917Z,1020.62
2019-01-06T03:32:15.908Z,1020.69
2019-01-06T03:33:15.909Z,1020.64
2019-01-06T03:34:15.887Z,1020.68
2019-01-06T03:35:15.873Z,1020.66
2019-01-06T03:36:15.862Z,1020.66
2019-01-06T03:37:15.853Z,1020.59
2019-01-06T03:38:15.848Z,1020.59
2019-01-06T03:39:15.833Z,1020.58
2019-01-06T03:40:15.823Z,1020.58
2019-01-06T03:41:15.806Z,1020.61
2019-01-06T03:42:15.801Z,1020.63
2019-01-06T03:43:15.785Z,1020.62
2019-01-06T03:44:15.780Z,1020.61
2019-01-06T03:45:15.764Z,1020.60
2019-01-06T03:46:15.753Z,1020.61
2019-01-06T03:47:15.742Z,1020.64
2019-01-06T03:48:15.731Z,1020.68
2019-01-06T03:49:15.718Z,1020.66
2019-01-06T03:50:15.707Z,1020.67
2019-01-06T03:51:15.694Z,1020.67
2019-01-06T03:52:15.686Z,1020.65
2019-01-06T03:53:15.674Z,1020.64
2019-01-06T03:54:15.663Z,1020.63
2019-01-06T03:55:15.662Z,1020.65
2019-01-06T03:56:15.644Z,1020.69
2019-01-06T03:57:15.628Z,1020.69
2019-01-06T03:58:15.619Z,1020.65
2019-01-06T03:59:15.609Z,1020.69
2019-01-06T04:00:15.596Z,1020.67
2019-01-06T04:01:15.587Z,1020.71
2019-01-06T04:02:15.575Z,1020.76
2019-01-06T04:03:15.585Z,1020.78
2019-01-06T04:04:15.554Z,1020.74
2019-01-06T04:05:15.546Z,1020.72
2019-01-06T04:06:15.531Z,1020.69
2019-01-06T04:07:15.518Z,1020.67
2019-01-06T04:08:15.508Z,1020.71
2019-01-06T04:09:15.501Z,1020.67
2019-01-06T04:10:33.681Z,1020.69
2019-01-06T04:11:57.520Z,1020.73
2019-01-06T04:13:15.639Z,1020.74
2019-01-06T04:14:39.537Z,1020.76
2019-01-06T04:15:39.524Z,1020.76
2019-01-06T04:16:39.514Z,1020.80
2019-01-06T04:17:39.519Z,1020.82
2019-01-06T04:18:39.492Z,1020.81
2019-01-06T04:19:39.480Z,1020.82
2019-01-06T04:20:39.474Z,1020.83
2019-01-06T04:21:39.458Z,1020.86
2019-01-06T04:22:39.453Z,1020.91
2019-01-06T04:23:39.436Z,1020.91
2019-01-06T04:24:39.424Z,1020.94
2019-01-06T04:25:39.416Z,1020.93
2019-01-06T04:26:39.406Z,1020.91
2019-01-06T04:27:39.394Z,1020.80
2019-01-06T04:28:39.379Z,1020.85
2019-01-06T04:29:39.370Z,1020.86
2019-01-06T04:30:39.361Z,1020.87
2019-01-06T04:31:39.348Z,1020.84
2019-01-06T04:32:39.336Z,1020.84
2019-01-06T04:33:39.328Z,1020.82
2019-01-06T04:34:39.319Z,1020.81
2019-01-06T04:35:39.305Z,1020.76
2019-01-06T04:36:39.298Z,1020.74
2019-01-06T04:37:39.279Z,1020.77
2019-01-06T04:38:39.269Z,1020.75
2019-01-06T04:39:39.258Z,1020.81
2019-01-06T04:40:39.246Z,1020.81
2019-01-06T04:41:39.238Z,1020.84
2019-01-06T04:42:39.227Z,1020.82
2019-01-06T04:43:39.218Z,1020.83
2019-01-06T04:44:39.202Z,1020.77
2019-01-06T04:45:39.191Z,1020.80
2019-01-06T04:46:39.181Z,1020.80
2019-01-06T04:47:39.168Z,1020.79
2019-01-06T04:48:39.158Z,1020.80
2019-01-06T04:49:39.146Z,1020.83
2019-01-06T04:50:39.135Z,1020.84
2019-01-06T04:51:39.124Z,1020.87
2019-01-06T04:52:39.115Z,1020.85
2019-01-06T04:53:39.101Z,1020.82
2019-01-06T04:54:39.089Z,1020.80
2019-01-06T04:55:39.085Z,1020.87
2019-01-06T04:56:39.068Z,1020.89
2019-01-06T04:57:39.056Z,1020.94
2019-01-06T04:58:39.045Z,1020.97
2019-01-06T04:59:39.039Z,1020.94
2019-01-06T05:00:39.026Z,1020.91
2019-01-06T05:01:58.637Z,1020.93
2019-01-06T05:03:21.051Z,1020.93
2019-01-06T05:04:21.031Z,1020.92
2019-01-06T05:05:21.022Z,1020.97
2019-01-06T05:06:21.010Z,1020.96
2019-01-06T05:07:21.001Z,1020.92
2019-01-06T05:08:20.989Z,1020.97
2019-01-06T05:09:20.982Z,1020.95
2019-01-06T05:10:20.968Z,1020.94
2019-01-06T05:11:20.959Z,1020.95
2019-01-06T05:12:20.944Z,1020.92
2019-01-06T05:13:20.932Z,1020.91
2019-01-06T05:14:20.924Z,1020.93
2019-01-06T05:15:20.911Z,1020.93
2019-01-06T05:16:20.904Z,1020.95
2019-01-06T05:17:20.890Z,1021.02
2019-01-06T05:18:20.878Z,1020.96
2019-01-06T05:19:20.903Z,1020.97
2019-01-06T05:20:20.858Z,1020.94
2019-01-06T05:21:20.847Z,1020.98
2019-01-06T05:22:20.833Z,1020.95
2019-01-06T05:23:20.826Z,1020.98
2019-01-06T05:24:20.813Z,1021.03
2019-01-06T05:25:20.800Z,1021.01
2019-01-06T05:26:20.790Z,1020.97
2019-01-06T05:27:20.779Z,1021.00
2019-01-06T05:28:20.768Z,1020.95
2019-01-06T05:29:20.757Z,1021.02
2019-01-06T05:30:20.744Z,1021.05
2019-01-06T05:31:20.733Z,1021.02
2019-01-06T05:32:20.723Z,1021.01
2019-01-06T05:33:20.711Z,1021.02
2019-01-06T05:34:20.702Z,1021.04
2019-01-06T05:35:20.700Z,1021.04
2019-01-06T05:36:20.679Z,1021.00
2019-01-06T05:37:20.673Z,1021.01
2019-01-06T05:38:20.660Z,1021.02
2019-01-06T05:39:20.645Z,1021.06
2019-01-06T05:40:20.635Z,1021.09
2019-01-06T05:41:20.622Z,1021.15
2019-01-06T05:42:20.614Z,1021.20
2019-01-06T05:43:20.601Z,1021.25
2019-01-06T05:44:20.591Z,1021.21
2019-01-06T05:45:20.580Z,1021.24
2019-01-06T05:46:20.567Z,1021.25
2019-01-06T05:47:20.556Z,1021.28
2019-01-06T05:48:20.544Z,1021.28
2019-01-06T05:49:20.533Z,1021.34
2019-01-06T05:50:20.529Z,1021.38
2019-01-06T05:51:20.514Z,1021.32
2019-01-06T05:52:20.501Z,1021.32
2019-01-06T05:53:20.492Z,1021.34
2019-01-06T05:54:20.481Z,1021.38
2019-01-06T05:55:20.471Z,1021.40
2019-01-06T05:56:20.456Z,1021.42
2019-01-06T05:57:20.448Z,1021.42
2019-01-06T05:58:20.434Z,1021.42
2019-01-06T05:59:20.423Z,1021.51
2019-01-06T06:00:20.414Z,1021.47
2019-01-06T06:01:20.403Z,1021.51
2019-01-06T06:02:20.389Z,1021.51
2019-01-06T06:03:20.379Z,1021.54
2019-01-06T06:04:20.369Z,1021.53
2019-01-06T06:05:20.360Z,1021.60
2019-01-06T06:06:20.350Z,1021.60
2019-01-06T06:07:20.337Z,1021.58
2019-01-06T06:08:20.324Z,1021.64
2019-01-06T06:09:20.316Z,1021.56
2019-01-06T06:10:20.303Z,1021.60
2019-01-06T06:11:20.293Z,1021.59
2019-01-06T06:12:20.279Z,1021.63
2019-01-06T06:13:20.270Z,1021.59
2019-01-06T06:14:20.261Z,1021.60
2019-01-06T06:15:20.247Z,1021.65
2019-01-06T06:16:20.237Z,1021.61
2019-01-06T06:17:20.226Z,1021.64
2019-01-06T06:18:20.214Z,1021.68
2019-01-06T06:19:20.206Z,1021.63
2019-01-06T06:20:20.192Z,1021.67
2019-01-06T06:21:20.182Z,1021.66
2019-01-06T06:23:47.616Z,1021.78
2019-01-06T06:24:47.606Z,1021.76
2019-01-06T06:25:47.595Z,1021.74
2019-01-06T06:26:47.583Z,1021.74
2019-01-06T06:27:47.574Z,1021.77
2019-01-06T06:28:47.561Z,1021.78
2019-01-06T06:29:47.551Z,1021.75
2019-01-06T06:30:47.539Z,1021.75
2019-01-06T06:31:47.530Z,1021.77
2019-01-06T06:32:47.517Z,1021.77
2019-01-06T06:33:47.506Z,1021.84
2019-01-06T06:34:47.495Z,1021.84
2019-01-06T06:35:47.483Z,1021.90
2019-01-06T06:36:47.473Z,1021.92
2019-01-06T06:37:47.462Z,1021.87
2019-01-06T06:38:47.449Z,1021.94
2019-01-06T06:39:47.438Z,1021.88
2019-01-06T06:40:47.431Z,1021.85
2019-01-06T06:41:47.417Z,1021.97
2019-01-06T06:42:47.404Z,1021.97
2019-01-06T06:43:47.397Z,1021.96
2019-01-06T06:44:47.395Z,1021.99
2019-01-06T06:45:47.372Z,1021.96
2019-01-06T06:46:47.362Z,1021.95
2019-01-06T06:47:47.351Z,1021.99
2019-01-06T06:48:47.343Z,1021.96
2019-01-06T06:49:47.329Z,1022.01
2019-01-06T06:50:47.330Z,1021.99
2019-01-06T06:51:47.312Z,1022.00
2019-01-06T06:52:47.294Z,1022.03
2019-01-06T06:53:47.285Z,1022.01
2019-01-06T06:54:47.276Z,1022.02
2019-01-06T06:55:47.261Z,1021.98
2019-01-06T06:56:47.252Z,1022.06
2019-01-06T06:57:47.240Z,1022.03
2019-01-06T06:58:47.227Z,1022.04
2019-01-06T06:59:47.228Z,1022.00
2019-01-06T07:00:47.206Z,1022.06
2019-01-06T07:01:47.247Z,1022.12
2019-01-06T07:02:47.183Z,1022.16
2019-01-06T07:03:47.172Z,1022.11
2019-01-06T07:04:47.167Z,1022.10
2019-01-06T07:05:47.149Z,1022.11
2019-01-06T07:06:47.143Z,1022.09
2019-01-06T07:07:47.129Z,1022.12
2019-01-06T07:08:47.117Z,1022.11
2019-01-06T07:09:47.114Z,1022.04
2019-01-06T07:10:47.097Z,1022.10
2019-01-06T07:11:47.086Z,1022.04
2019-01-06T07:12:47.073Z,1022.15
2019-01-06T07:13:47.062Z,1022.16
2019-01-06T07:14:47.050Z,1022.21
2019-01-06T07:15:47.041Z,1022.20
2019-01-06T07:16:47.029Z,1022.24
2019-01-06T07:17:47.019Z,1022.24
2019-01-06T07:18:47.006Z,1022.22
2019-01-06T07:19:46.996Z,1022.24
2019-01-06T07:20:46.998Z,1022.23
2019-01-06T07:21:47.846Z,1022.31
2019-01-06T07:22:47.005Z,1022.33
2019-01-06T07:23:46.952Z,1022.38
2019-01-06T07:24:46.940Z,1022.35
2019-01-06T07:25:46.929Z,1022.37
2019-01-06T07:26:46.918Z,1022.40
2019-01-06T07:27:46.910Z,1022.36
2019-01-06T07:28:46.899Z,1022.35
2019-01-06T07:29:46.914Z,1022.37
2019-01-06T07:30:46.876Z,1022.37
2019-01-06T07:31:46.865Z,1022.38
2019-01-06T07:32:46.874Z,1022.40
2019-01-06T07:33:46.843Z,1022.45
2019-01-06T07:34:46.831Z,1022.48
2019-01-06T07:35:46.822Z,1022.45
2019-01-06T07:36:46.811Z,1022.48
2019-01-06T07:37:46.797Z,1022.51
2019-01-06T07:39:07.420Z,1022.50
2019-01-06T07:40:28.818Z,1022.53
2019-01-06T07:41:28.808Z,1022.56
2019-01-06T07:42:28.795Z,1022.50
2019-01-06T07:43:28.786Z,1022.49
2019-01-06T07:44:28.778Z,1022.48
2019-01-06T07:45:28.763Z,1022.49
2019-01-06T07:46:28.754Z,1022.49
2019-01-06T07:47:28.743Z,1022.52
2019-01-06T07:48:28.733Z,1022.53
2019-01-06T07:49:28.720Z,1022.52
2019-01-06T07:50:28.708Z,1022.51
2019-01-06T07:51:28.697Z,1022.52
2019-01-06T07:52:28.690Z,1022.54
2019-01-06T07:53:28.676Z,1022.51
2019-01-06T07:54:28.665Z,1022.50
2019-01-06T07:55:28.655Z,1022.53
2019-01-06T07:56:28.643Z,1022.51
2019-01-06T07:57:28.630Z,1022.54
2019-01-06T07:58:28.620Z,1022.55
2019-01-06T07:59:28.614Z,1022.57
2019-01-06T08:00:28.600Z,1022.57
2019-01-06T08:01:28.588Z,1022.55
2019-01-06T08:02:28.576Z,1022.56
2019-01-06T08:03:28.565Z,1022.61
2019-01-06T08:04:28.553Z,1022.57
2019-01-06T08:05:28.542Z,1022.56
2019-01-06T08:06:28.534Z,1022.56
2019-01-06T08:07:28.521Z,1022.52
2019-01-06T08:08:28.511Z,1022.58
2019-01-06T08:09:28.502Z,1022.61
2019-01-06T08:10:28.488Z,1022.62
2019-01-06T08:11:28.491Z,1022.57
2019-01-06T08:12:28.465Z,1022.59
2019-01-06T08:13:28.455Z,1022.61
2019-01-06T08:14:28.443Z,1022.60
2019-01-06T08:15:28.434Z,1022.62
2019-01-06T08:16:28.425Z,1022.62
2019-01-06T08:17:28.409Z,1022.64
2019-01-06T08:18:28.399Z,1022.68
2019-01-06T08:19:28.393Z,1022.62
2019-01-06T08:20:28.377Z,1022.65
2019-01-06T08:21:28.367Z,1022.64
2019-01-06T08:22:28.359Z,1022.61
2019-01-06T08:23:28.344Z,1022.64
2019-01-06T08:24:28.339Z,1022.66
2019-01-06T08:25:28.322Z,1022.59
2019-01-06T08:26:28.311Z,1022.67
2019-01-06T08:27:28.299Z,1022.73
2019-01-06T08:28:28.289Z,1022.67
2019-01-06T08:29:28.279Z,1022.77
2019-01-06T08:30:28.270Z,1022.67
2019-01-06T08:31:28.267Z,1022.78
2019-01-06T08:32:28.243Z,1022.78
2019-01-06T08:33:28.236Z,1022.82
2019-01-06T08:34:28.224Z,1022.79
2019-01-06T08:35:28.213Z,1022.82
2019-01-06T08:36:28.205Z,1022.82
2019-01-06T08:37:28.193Z,1022.82
2019-01-06T08:38:28.180Z,1022.82
2019-01-06T08:39:28.169Z,1022.83
2019-01-06T08:40:28.160Z,1022.83
2019-01-06T08:41:28.146Z,1022.85
2019-01-06T08:42:28.141Z,1022.89
2019-01-06T08:43:28.125Z,1022.85
2019-01-06T08:44:28.113Z,1022.87
2019-01-06T08:45:28.103Z,1022.92
2019-01-06T08:46:28.094Z,1022.88
2019-01-06T08:47:28.081Z,1022.90
2019-01-06T08:48:28.071Z,1022.94
2019-01-06T08:49:28.060Z,1022.93
2019-01-06T08:50:28.051Z,1022.90
2019-01-06T08:51:28.039Z,1022.93
2019-01-06T08:52:28.027Z,1022.90
2019-01-06T08:53:28.016Z,1022.87
2019-01-06T08:54:28.005Z,1022.89
2019-01-06T08:55:27.993Z,1022.92
2019-01-06T08:56:27.986Z,1022.95
2019-01-06T08:57:27.972Z,1022.98
2019-01-06T08:58:27.961Z,1022.91
2019-01-06T08:59:27.949Z,1022.94
2019-01-06T09:00:28.070Z,1022.93
2019-01-06T09:01:27.984Z,1022.89
2019-01-06T09:02:27.918Z,1022.93
2019-01-06T09:03:27.907Z,1022.94
2019-01-06T09:04:27.898Z,1022.98
2019-01-06T09:05:27.887Z,1023.00
2019-01-06T09:06:27.874Z,1023.02
2019-01-06T09:07:27.862Z,1022.94
2019-01-06T09:08:27.853Z,1022.98
2019-01-06T09:09:27.840Z,1023.01
2019-01-06T09:10:27.844Z,1023.01
2019-01-06T09:11:27.817Z,1023.03
2019-01-06T09:12:27.815Z,1023.07
2019-01-06T09:13:27.796Z,1023.03
2019-01-06T09:14:27.786Z,1023.04
2019-01-06T09:15:27.774Z,1023.06
2019-01-06T09:16:27.765Z,1023.08
2019-01-06T09:17:27.752Z,1023.04
2019-01-06T09:18:27.743Z,1023.06
2019-01-06T09:19:27.730Z,1023.04
2019-01-06T09:20:27.718Z,1023.06
2019-01-06T09:21:27.708Z,1023.05
2019-01-06T09:22:27.696Z,1023.08
2019-01-06T09:23:27.688Z,1023.03
2019-01-06T09:24:27.678Z,1023.05
2019-01-06T09:25:27.665Z,1023.04
2019-01-06T09:26:27.656Z,1023.01
2019-01-06T09:27:27.642Z,1022.99
2019-01-06T09:28:27.633Z,1023.00
2019-01-06T09:29:27.626Z,1023.00
2019-01-06T09:30:27.610Z,1023.00
2019-01-06T09:31:27.598Z,1022.92
2019-01-06T09:32:27.586Z,1022.92
2019-01-06T09:33:27.576Z,1022.92
2019-01-06T09:34:27.566Z,1022.91
2019-01-06T09:35:27.556Z,1022.97
2019-01-06T09:36:27.543Z,1022.87
2019-01-06T09:37:27.533Z,1022.91
2019-01-06T09:38:27.522Z,1022.94
2019-01-06T09:39:27.519Z,1022.97
2019-01-06T09:40:27.501Z,1022.96
2019-01-06T09:41:27.496Z,1022.97
2019-01-06T09:42:27.480Z,1023.02
2019-01-06T09:43:27.471Z,1023.06
2019-01-06T09:44:27.456Z,1023.02
2019-01-06T09:45:27.494Z,1023.05
2019-01-06T09:46:27.433Z,1023.02
2019-01-06T09:47:27.430Z,1023.02
2019-01-06T09:48:27.411Z,1023.00
2019-01-06T09:49:27.401Z,1023.05
2019-01-06T09:50:27.391Z,1023.07
2019-01-06T09:51:27.382Z,1023.08
2019-01-06T09:52:27.367Z,1023.08
2019-01-06T09:53:27.356Z,1023.09
2019-01-06T09:54:27.344Z,1023.08
2019-01-06T09:55:27.336Z,1023.12
2019-01-06T09:56:27.324Z,1023.09
2019-01-06T09:57:27.315Z,1023.09
2019-01-06T09:58:27.301Z,1023.04
2019-01-06T09:59:27.291Z,1023.04
2019-01-06T10:00:27.281Z,1023.00
2019-01-06T10:01:27.269Z,1022.98
2019-01-06T10:02:27.259Z,1023.03
2019-01-06T10:03:27.249Z,1022.93
2019-01-06T10:04:34.824Z,1022.93
2019-01-06T10:05:28.224Z,1022.90
2019-01-06T10:06:27.215Z,1022.88
2019-01-06T10:07:27.206Z,1022.90
2019-01-06T10:08:27.192Z,1022.92
2019-01-06T10:09:27.182Z,1022.88
2019-01-06T10:10:27.177Z,1022.95
2019-01-06T10:11:27.157Z,1022.91
2019-01-06T10:12:27.152Z,1022.93
2019-01-06T10:13:27.137Z,1022.93
2019-01-06T10:14:27.125Z,1022.94
2019-01-06T10:15:27.116Z,1022.95
2019-01-06T10:16:27.106Z,1023.01
2019-01-06T10:17:27.093Z,1023.01
2019-01-06T10:18:27.084Z,1023.01
2019-01-06T10:19:27.071Z,1023.01
2019-01-06T10:20:27.062Z,1023.01
2019-01-06T10:21:27.050Z,1023.00
2019-01-06T10:22:27.039Z,1023.00
2019-01-06T10:23:27.030Z,1023.06
2019-01-06T10:24:27.017Z,1023.06
2019-01-06T10:25:27.006Z,1023.05
2019-01-06T10:26:26.995Z,1023.04
2019-01-06T10:27:26.985Z,1023.09
2019-01-06T10:28:27.024Z,1023.08
2019-01-06T10:29:26.963Z,1023.07
2019-01-06T10:30:26.952Z,1023.03
2019-01-06T10:31:26.942Z,1023.05
2019-01-06T10:32:26.932Z,1022.97
2019-01-06T10:33:26.916Z,1022.97
2019-01-06T10:34:27.629Z,1022.90
2019-01-06T10:35:26.911Z,1022.93
2019-01-06T10:36:26.884Z,1022.95
2019-01-06T10:37:26.872Z,1022.91
2019-01-06T10:38:26.866Z,1022.92
2019-01-06T10:39:26.879Z,1022.91
2019-01-06T10:40:26.840Z,1022.92
2019-01-06T10:41:26.829Z,1022.92
2019-01-06T10:42:26.915Z,1022.97
2019-01-06T10:43:26.808Z,1022.91
2019-01-06T10:44:26.797Z,1022.95
2019-01-06T10:45:26.792Z,1022.91
2019-01-06T10:46:26.775Z,1022.98
2019-01-06T10:47:26.762Z,1022.97
2019-01-06T10:48:26.751Z,1022.95
2019-01-06T10:49:26.743Z,1022.91
2019-01-06T10:50:28.311Z,1022.89
2019-01-06T10:51:26.722Z,1022.93
2019-01-06T10:52:26.708Z,1022.90
2019-01-06T10:53:26.698Z,1022.92
2019-01-06T10:54:26.685Z,1022.97
2019-01-06T10:55:26.679Z,1022.89
2019-01-06T10:56:26.663Z,1022.92
2019-01-06T10:57:26.656Z,1022.92
2019-01-06T10:58:26.644Z,1022.88
2019-01-06T10:59:26.630Z,1022.90
2019-01-06T11:00:26.618Z,1022.91
2019-01-06T11:01:26.611Z,1022.93
2019-01-06T11:02:26.600Z,1022.93
2019-01-06T11:03:26.587Z,1022.93
2019-01-06T11:04:26.576Z,1022.94
2019-01-06T11:05:26.571Z,1022.89
2019-01-06T11:06:26.552Z,1022.88
2019-01-06T11:07:26.544Z,1022.93
2019-01-06T11:08:26.534Z,1022.94
2019-01-06T11:09:26.524Z,1022.91
2019-01-06T11:10:26.509Z,1022.88
2019-01-06T11:11:26.500Z,1022.85
2019-01-06T11:12:26.489Z,1022.90
2019-01-06T11:13:26.479Z,1022.92
2019-01-06T11:14:26.468Z,1022.91
2019-01-06T11:15:26.466Z,1022.91
2019-01-06T11:16:26.454Z,1022.89
2019-01-06T11:17:26.433Z,1022.93
2019-01-06T11:18:26.424Z,1022.86
2019-01-06T11:19:26.411Z,1022.88
2019-01-06T11:20:26.400Z,1022.90
2019-01-06T11:21:26.388Z,1022.86
2019-01-06T11:22:26.382Z,1022.92
2019-01-06T11:23:26.365Z,1022.87
2019-01-06T11:24:26.355Z,1022.89
2019-01-06T11:25:26.346Z,1022.89
2019-01-06T11:26:26.340Z,1022.91
2019-01-06T11:27:26.321Z,1022.90
2019-01-06T11:28:26.316Z,1022.90
2019-01-06T11:29:26.310Z,1022.92
2019-01-06T11:30:26.288Z,1022.86
2019-01-06T11:31:26.279Z,1022.86
2019-01-06T11:32:26.267Z,1022.86
2019-01-06T11:33:26.257Z,1022.89
2019-01-06T11:34:26.245Z,1022.88
2019-01-06T11:35:26.236Z,1022.89
2019-01-06T11:36:26.224Z,1022.86
2019-01-06T11:37:26.221Z,1022.85
2019-01-06T11:38:26.202Z,1022.79
2019-01-06T11:39:26.191Z,1022.83
2019-01-06T11:40:26.181Z,1022.79
2019-01-06T11:41:26.168Z,1022.77
2019-01-06T11:42:26.159Z,1022.75
2019-01-06T11:43:26.145Z,1022.75
2019-01-06T11:44:26.141Z,1022.73
2019-01-06T11:45:26.123Z,1022.72
2019-01-06T11:46:26.113Z,1022.73
2019-01-06T11:47:26.100Z,1022.75
2019-01-06T11:48:26.092Z,1022.78
2019-01-06T11:49:26.081Z,1022.73
2019-01-06T11:50:26.073Z,1022.76
2019-01-06T11:51:26.077Z,1022.75
2019-01-06T11:52:26.062Z,1022.77
2019-01-06T11:53:26.043Z,1022.74
2019-01-06T11:54:26.029Z,1022.72
2019-01-06T11:55:26.016Z,1022.76
2019-01-06T11:56:26.016Z,1022.79
2019-01-06T11:57:26.000Z,1022.79
2019-01-06T11:58:25.980Z,1022.76
2019-01-06T11:59:25.982Z,1022.79
2019-01-06T12:00:25.965Z,1022.77
2019-01-06T12:01:25.947Z,1022.78
2019-01-06T12:02:25.937Z,1022.79
2019-01-06T12:03:25.926Z,1022.78
2019-01-06T12:04:25.915Z,1022.73
2019-01-06T12:05:25.903Z,1022.79
2019-01-06T12:06:25.893Z,1022.76
2019-01-06T12:07:25.883Z,1022.81
2019-01-06T12:08:25.873Z,1022.81
2019-01-06T12:09:25.859Z,1022.80
2019-01-06T12:10:25.856Z,1022.79